Time;durP1;ratioP1;P1;durP2;ratioP2;P2;SDS_P1;SDS_P2;PMS_P1;PMS_P2;Temp;Humidity;BMP_temperature;BMP_pressure;BME280_temperature;BME280_humidity;BME280_pressure;Samples;Min_cycle;Max_cycle;Signal;HPM_P1;HPM_P2
2021/09/15 00:00:04;;;;;;;9.77;6.10;;;;;;;23.34;60.28;101023.66;4947496;28;113931;-62
2021/09/15 00:02:37;;;;;;;;;;;;;;;23.31;59.93;101023.94;4949912;28;125212;-62
2021/09/15 00:05:07;;;;;;;9.75;5.80;;;;;;;23.33;60.13;101024.63;4947233;28;124126;-60
2021/09/15 00:07:34;;;;;;;10.88;6.50;;;;;;;23.31;60.00;101018.53;4944780;28;114654;-61
2021/09/15 00:10:03;;;;;;;11.18;6.40;;;;;;;23.30;60.26;101014.13;4948251;28;114601;-60
2021/09/15 00:12:30;;;;;;;9.32;6.40;;;;;;;23.31;60.29;101015.81;4950146;28;125232;-61
2021/09/15 00:14:58;;;;;;;9.98;6.05;;;;;;;23.29;60.15;101012.44;4944781;28;124385;-61
2021/09/15 00:17:25;;;;;;;9.23;6.50;;;;;;;23.29;60.17;101012.44;4948831;28;115203;-61
2021/09/15 00:19:53;;;;;;;9.00;6.10;;;;;;;23.27;60.14;101003.63;4947257;28;114041;-61
2021/09/15 00:22:20;;;;;;;8.82;5.70;;;;;;;23.28;60.20;101010.72;4947286;28;124451;-61
2021/09/15 00:24:47;;;;;;;8.85;6.00;;;;;;;23.26;60.23;101013.59;4945513;28;123341;-61
2021/09/15 00:27:14;;;;;;;9.75;6.22;;;;;;;23.26;60.38;101010.00;4947493;28;114720;-61
2021/09/15 00:29:42;;;;;;;9.52;5.88;;;;;;;23.25;60.26;101006.47;4948450;28;114194;-61
2021/09/15 00:32:09;;;;;;;10.00;6.07;;;;;;;23.25;60.42;101016.44;4952517;28;123583;-61
2021/09/15 00:34:37;;;;;;;9.90;5.90;;;;;;;23.24;60.14;101020.13;4951987;28;124585;-63
2021/09/15 00:37:08;;;;;;;7.78;5.43;;;;;;;23.24;60.27;101020.13;4952875;28;113341;-62
2021/09/15 00:39:35;;;;;;;9.02;5.72;;;;;;;23.22;60.39;101005.91;4951344;28;114113;-61
2021/09/15 00:42:03;;;;;;;8.02;5.70;;;;;;;23.20;60.24;101010.59;4952004;28;124150;-60
2021/09/15 00:44:30;;;;;;;8.68;5.88;;;;;;;23.19;60.38;101006.19;4954030;28;123000;-60
2021/09/15 00:46:58;;;;;;;8.88;5.75;;;;;;;23.19;60.41;101000.78;4968194;28;113974;-60
2021/09/15 00:49:25;;;;;;;7.95;5.70;;;;;;;23.18;60.44;100999.09;4948637;28;114295;-60
2021/09/15 00:51:53;;;;;;;11.48;6.43;;;;;;;23.17;60.33;100997.38;4966424;28;123604;-60
2021/09/15 00:54:20;;;;;;;8.65;5.65;;;;;;;23.16;60.33;100995.69;4967688;28;123409;-60
2021/09/15 00:56:48;;;;;;;9.50;6.03;;;;;;;23.15;60.44;100988.56;4951674;28;114510;-60
2021/09/15 00:59:17;;;;;;;9.07;5.85;;;;;;;23.14;60.62;100993.13;4951811;28;113160;-61
2021/09/15 01:01:45;;;;;;;9.38;6.03;;;;;;;23.13;60.49;100997.69;4952029;28;123694;-62
2021/09/15 01:04:16;;;;;;;9.18;5.88;;;;;;;23.13;60.58;100997.69;4951830;28;123672;-62
2021/09/15 01:06:48;;;;;;;8.88;5.70;;;;;;;23.12;60.68;100995.97;4950582;28;113183;-63
2021/09/15 01:09:17;;;;;;;9.52;5.95;;;;;;;23.12;60.60;100995.97;4948375;28;114662;-62
2021/09/15 01:11:46;;;;;;;9.05;6.10;;;;;;;23.11;60.45;100999.69;4965284;28;123536;-64
2021/09/15 01:14:27;;;;;;;9.65;6.20;;;;;;;23.10;60.47;101003.38;4949322;28;123736;-65
2021/09/15 01:17:17;;;;;;;8.93;6.00;;;;;;;23.09;60.27;101007.09;4946093;28;115816;-63
2021/09/15 01:19:50;;;;;;;9.13;6.22;;;;;;;23.07;60.45;101009.06;4952021;28;116003;-63
2021/09/15 01:22:36;;;;;;;9.65;6.25;;;;;;;23.04;60.65;101009.38;4951247;28;124752;-63
2021/09/15 01:25:32;;;;;;;;;;;;;;;22.99;60.29;101010.78;4951672;28;123154;-63
2021/09/15 01:28:19;;;;;;;8.15;5.75;;;;;;;22.99;60.57;101011.63;4952329;28;116048;-63
2021/09/15 01:30:54;;;;;;;10.43;6.38;;;;;;;22.95;60.60;101012.91;4950313;28;116482;-64
2021/09/15 01:33:22;;;;;;;8.45;6.05;;;;;;;22.94;60.65;101003.09;4933792;28;122960;-64
2021/09/15 01:35:49;;;;;;;8.32;6.38;;;;;;;22.92;60.75;101002.41;4950254;28;123014;-63
2021/09/15 01:38:16;;;;;;;9.57;6.57;;;;;;;22.91;60.79;100998.00;4950376;28;114084;-63
2021/09/15 01:40:45;;;;;;;10.68;6.20;;;;;;;22.89;60.74;101000.00;4949802;28;112809;-63
2021/09/15 01:43:13;;;;;;;8.30;6.32;;;;;;;22.87;60.79;100991.19;4950269;28;122861;-63
2021/09/15 01:45:42;;;;;;;8.45;6.43;;;;;;;22.87;61.05;100991.19;4955443;28;123625;-63
2021/09/15 01:48:19;;;;;;;9.95;6.82;;;;;;;22.84;60.99;100980.69;4965218;28;116523;-63
2021/09/15 01:50:46;;;;;;;8.90;6.57;;;;;;;22.83;60.98;100984.34;4950521;28;113378;-63
2021/09/15 01:53:13;;;;;;;9.60;6.68;;;;;;;22.83;60.87;100978.97;4935708;28;123174;-64
2021/09/15 01:55:40;;;;;;;9.23;6.40;;;;;;;22.83;60.91;100981.66;4953393;28;123106;-63
2021/09/15 01:58:31;;;;;;;8.48;6.60;;;;;;;22.81;61.02;100980.97;4944919;28;114695;-64
2021/09/15 02:01:13;;;;;;;10.68;6.95;;;;;;;22.76;60.89;100977.88;4952628;28;114308;-64
2021/09/15 02:04:00;;;;;;;10.45;6.88;;;;;;;22.72;60.92;100972.75;4950811;28;124490;-64
2021/09/15 02:06:45;;;;;;;;;;;;;;;22.64;60.95;100969.94;4950305;28;124481;-64
2021/09/15 02:09:31;;;;;;;12.30;6.95;;;;;;;22.64;60.92;100975.31;4948567;28;114216;-64
2021/09/15 02:12:11;;;;;;;9.75;6.50;;;;;;;22.64;60.96;100969.94;4935070;28;113892;-64
2021/09/15 02:14:39;;;;;;;11.88;6.72;;;;;;;22.61;61.01;100970.22;4950444;28;123653;-64
2021/09/15 02:17:07;;;;;;;9.80;7.07;;;;;;;22.59;61.07;100966.78;4947896;28;123476;-64
2021/09/15 02:19:35;;;;;;;10.20;7.05;;;;;;;22.58;61.13;100975.88;4948680;28;115183;-63
2021/09/15 02:22:10;;;;;;;11.02;7.18;;;;;;;22.54;61.10;100969.06;4954066;28;117271;-63
2021/09/15 02:24:53;;;;;;;11.70;7.90;;;;;;;22.49;61.27;100979.44;4950457;28;123177;-63
2021/09/15 02:27:45;;;;;;;13.20;7.88;;;;;;;22.46;61.25;100966.25;4949211;28;122572;-63
2021/09/15 02:30:18;;;;;;;11.57;7.28;;;;;;;22.44;61.36;100969.09;4948152;28;96905;-64
2021/09/15 02:32:55;;;;;;;10.88;7.90;;;;;;;22.44;61.56;100962.84;4950698;28;117935;-64
2021/09/15 02:35:34;;;;;;;14.77;9.07;;;;;;;22.44;61.56;100968.25;4948938;28;123413;-64
2021/09/15 02:38:14;;;;;;;11.95;8.45;;;;;;;22.43;61.42;100961.97;4946446;28;123429;-63
2021/09/15 02:40:54;;;;;;;11.07;8.30;;;;;;;22.43;61.38;100961.13;4951555;28;114193;-64
2021/09/15 02:43:38;;;;;;;12.30;9.02;;;;;;;22.41;61.50;100963.13;4950159;28;113709;-63
2021/09/15 02:46:19;;;;;;;13.30;9.88;;;;;;;22.40;61.71;100966.84;4950078;28;123331;-63
2021/09/15 02:49:00;;;;;;;14.05;10.07;;;;;;;22.39;61.78;100959.72;4949772;28;122220;-63
2021/09/15 02:51:39;;;;;;;14.65;10.05;;;;;;;22.38;61.83;100968.78;4950396;28;113386;-63
2021/09/15 02:54:17;;;;;;;11.93;8.70;;;;;;;22.38;61.75;100958.00;4949557;28;113670;-63
2021/09/15 02:57:04;;;;;;;14.82;9.30;;;;;;;22.36;61.96;100955.47;4949142;28;124404;-61
2021/09/15 02:59:38;;;;;;;13.80;9.80;;;;;;;22.37;62.06;100956.31;4947711;28;124652;-61
2021/09/15 03:02:24;;;;;;;14.73;9.57;;;;;;;22.37;62.05;100956.31;4948717;28;116022;-61
2021/09/15 03:05:11;;;;;;;14.00;9.70;;;;;;;22.37;62.05;100953.63;4950636;28;115803;-61
2021/09/15 03:07:56;;;;;;;14.63;9.73;;;;;;;22.35;62.14;100954.59;4949341;28;124736;-61
2021/09/15 03:10:24;;;;;;;15.40;9.20;;;;;;;22.35;62.07;100943.78;4946599;28;123403;-61
2021/09/15 03:12:52;;;;;;;14.23;9.25;;;;;;;22.37;62.30;100950.91;4958868;28;113463;-61
2021/09/15 03:15:19;;;;;;;12.20;9.32;;;;;;;22.37;62.27;100942.81;4945738;28;113312;-61
2021/09/15 03:17:47;;;;;;;13.05;9.32;;;;;;;22.37;62.37;100927.47;4945754;28;125065;-61
2021/09/15 03:20:15;;;;;;;14.90;9.10;;;;;;;22.38;62.32;100925.63;4965444;28;123124;-61
2021/09/15 03:22:42;;;;;;;13.02;9.38;;;;;;;22.38;62.36;100931.00;4949078;28;113419;-61
2021/09/15 03:25:10;;;;;;;13.68;9.80;;;;;;;22.39;62.39;100921.94;4945336;28;113339;-61
2021/09/15 03:27:37;;;;;;;12.23;9.65;;;;;;;22.40;62.54;100920.94;4949381;28;123224;-61
2021/09/15 03:30:07;;;;;;;13.05;9.13;;;;;;;22.41;62.46;100919.94;4948610;28;122921;-61
2021/09/15 03:32:34;;;;;;;12.85;8.77;;;;;;;22.43;62.46;100912.53;4965795;28;113810;-61
2021/09/15 03:35:04;;;;;;;13.20;9.25;;;;;;;22.44;62.49;100925.91;4930348;28;113346;-61
2021/09/15 03:37:31;;;;;;;14.50;9.30;;;;;;;22.44;62.41;100930.47;4962352;28;123138;-61
2021/09/15 03:39:59;;;;;;;13.73;9.80;;;;;;;22.44;62.64;100930.47;4947718;28;122763;-62
2021/09/15 03:42:27;;;;;;;13.18;9.55;;;;;;;22.43;62.59;100926.03;4946150;28;113537;-62
2021/09/15 03:44:55;;;;;;;13.43;9.85;;;;;;;22.42;62.72;100924.34;4953218;28;113275;-63
2021/09/15 03:47:23;;;;;;;12.95;9.40;;;;;;;22.42;62.74;100917.09;4949289;28;123235;-64
2021/09/15 03:49:50;;;;;;;13.65;9.80;;;;;;;22.41;62.92;100919.94;4948861;28;122961;-66
2021/09/15 03:52:18;;;;;;;17.17;10.05;;;;;;;22.41;62.86;100914.53;4949706;28;115992;-65
2021/09/15 03:54:45;;;;;;;13.38;9.55;;;;;;;22.38;62.82;100915.69;4933642;28;113557;-65
2021/09/15 03:57:12;;;;;;;14.82;9.88;;;;;;;22.39;63.01;100916.53;4950693;28;123071;-65
2021/09/15 03:59:39;;;;;;;14.52;9.63;;;;;;;22.39;63.02;100906.59;4947418;28;123085;-65
2021/09/15 04:02:07;;;;;;;13.77;9.65;;;;;;;22.41;63.31;100909.16;4964548;28;113357;-65
2021/09/15 04:04:36;;;;;;;13.90;10.07;;;;;;;22.42;63.03;100914.41;4949564;28;113269;-65
2021/09/15 04:07:03;;;;;;;15.43;10.40;;;;;;;22.44;63.02;100914.25;4955871;28;123306;-65
2021/09/15 04:09:30;;;;;;;13.98;9.88;;;;;;;22.43;63.05;100913.38;4948911;28;122161;-65
2021/09/15 04:11:58;;;;;;;15.07;10.90;;;;;;;22.42;63.01;100911.69;4955963;28;113380;-65
2021/09/15 04:14:26;;;;;;;15.63;10.35;;;;;;;22.41;63.02;100915.38;4952171;28;113199;-65
2021/09/15 04:16:55;;;;;;;15.15;10.13;;;;;;;22.41;63.25;100914.53;4967599;28;122923;-65
2021/09/15 04:19:22;;;;;;;13.88;10.30;;;;;;;22.39;63.22;100911.13;4950633;28;123904;-65
2021/09/15 04:21:50;;;;;;;13.40;10.65;;;;;;;22.39;63.34;100913.84;4952944;28;113429;-65
2021/09/15 04:32:25;;;;;;;16.90;10.85;;;;;;;22.34;63.32;100907.03;4982307;22;113446;-64
2021/09/15 04:34:53;;;;;;;12.68;10.18;;;;;;;22.36;63.41;100906.91;4945335;28;113231;-63
2021/09/15 04:37:22;;;;;;;13.52;9.75;;;;;;;22.39;63.16;100909.28;4966182;28;123643;-64
2021/09/15 04:39:49;;;;;;;15.52;11.07;;;;;;;22.40;63.29;100918.25;4959130;28;123115;-64
2021/09/15 04:42:17;;;;;;;14.90;10.80;;;;;;;22.41;63.34;100909.97;4951626;28;114400;-64
2021/09/15 04:44:44;;;;;;;17.42;11.55;;;;;;;22.43;63.29;100912.53;4952159;28;114290;-64
2021/09/15 04:47:11;;;;;;;17.10;11.65;;;;;;;22.44;63.23;100915.09;4951321;28;122956;-64
2021/09/15 04:49:39;;;;;;;16.20;11.65;;;;;;;22.44;63.35;100908.88;4950445;28;123204;-63
2021/09/15 04:52:06;;;;;;;15.90;11.73;;;;;;;22.44;63.31;100914.25;4951832;28;113464;-63
2021/09/15 04:54:33;;;;;;;17.75;12.63;;;;;;;22.43;63.38;100907.16;4951618;28;113151;-63
2021/09/15 04:57:00;;;;;;;16.27;12.20;;;;;;;22.43;63.50;100907.16;4951370;28;123895;-63
2021/09/15 04:59:27;;;;;;;16.33;12.30;;;;;;;22.42;63.56;100913.56;4950773;28;122934;-63
2021/09/15 05:01:57;;;;;;;17.75;12.32;;;;;;;22.41;63.44;100909.16;4953225;28;114170;-63
2021/09/15 05:04:24;;;;;;;17.23;11.75;;;;;;;22.42;63.56;100905.47;4951197;28;113518;-63
2021/09/15 05:07:10;;;;;;;19.25;13.07;;;;;;;22.42;63.58;100906.31;4951193;28;123143;-67
2021/09/15 05:09:37;;;;;;;19.00;13.00;;;;;;;22.42;63.55;100906.31;4934276;28;124094;-67
2021/09/15 05:12:06;;;;;;;17.23;11.75;;;;;;;22.45;63.57;100905.16;4947975;28;113429;-67
2021/09/15 05:14:34;;;;;;;17.48;12.80;;;;;;;22.45;63.49;100899.75;4966349;28;113866;-64
2021/09/15 05:17:01;;;;;;;18.27;12.25;;;;;;;22.47;63.54;100904.03;4939225;28;123633;-62
2021/09/15 05:19:29;;;;;;;17.08;12.45;;;;;;;22.48;63.50;100910.28;4949627;28;122961;-63
2021/09/15 05:21:56;;;;;;;17.58;12.45;;;;;;;22.49;63.51;100906.56;4950208;28;113453;-63
2021/09/15 05:24:23;;;;;;;16.80;11.60;;;;;;;22.51;63.49;100915.38;4951047;28;113478;-63
2021/09/15 05:26:51;;;;;;;17.05;11.50;;;;;;;22.49;63.41;100901.16;4949962;28;123956;-63
2021/09/15 05:29:18;;;;;;;15.68;10.65;;;;;;;22.49;63.38;100906.56;4962322;28;123827;-63
2021/09/15 05:31:46;;;;;;;15.90;11.07;;;;;;;22.48;63.35;100904.88;4950469;28;115570;-63
2021/09/15 05:34:13;;;;;;;15.88;11.23;;;;;;;22.47;63.41;100903.16;4951530;28;114079;-63
2021/09/15 05:36:41;;;;;;;18.25;11.70;;;;;;;22.46;63.43;100907.72;4950776;28;123339;-63
2021/09/15 05:39:11;;;;;;;14.52;11.18;;;;;;;22.46;63.40;100904.16;4950544;28;123222;-63
2021/09/15 05:41:38;;;;;;;19.00;11.43;;;;;;;22.46;63.48;100912.28;4950351;28;114145;-64
2021/09/15 05:44:06;;;;;;;18.92;11.93;;;;;;;22.46;63.47;100912.28;4951273;28;112958;-64
2021/09/15 05:46:33;;;;;;;13.50;10.50;;;;;;;22.43;63.49;100910.69;4951343;28;123615;-63
2021/09/15 05:49:03;;;;;;;14.48;10.57;;;;;;;22.42;63.53;100911.69;4967203;28;123050;-63
2021/09/15 05:51:32;;;;;;;15.63;10.23;;;;;;;22.41;63.58;100914.53;4950368;28;113575;-63
2021/09/15 05:54:01;;;;;;;17.23;12.00;;;;;;;22.42;63.62;100910.84;4968209;28;113239;-63
2021/09/15 05:56:29;;;;;;;16.08;11.18;;;;;;;22.42;63.76;100913.56;4950481;28;123140;-64
2021/09/15 05:58:58;;;;;;;16.00;11.30;;;;;;;22.41;63.78;100914.53;4950472;28;124089;-65
2021/09/15 06:01:26;;;;;;;16.60;11.77;;;;;;;22.41;63.71;100920.78;4951393;28;113366;-63
2021/09/15 06:03:53;;;;;;;17.80;11.05;;;;;;;22.39;63.71;100921.94;4951113;28;113403;-63
2021/09/15 06:06:47;;;;;;;15.95;11.13;;;;;;;22.38;63.73;100920.22;4949508;28;124679;-63
2021/09/15 06:09:18;;;;;;;16.40;11.77;;;;;;;22.35;63.74;100919.50;4953830;28;123811;-63
2021/09/15 06:11:46;;;;;;;14.43;10.98;;;;;;;22.38;63.85;100922.91;4949627;28;113483;-63
2021/09/15 06:14:14;;;;;;;15.98;11.43;;;;;;;22.38;64.00;100931.00;4956431;28;113733;-63
2021/09/15 06:16:42;;;;;;;15.18;11.00;;;;;;;22.40;63.87;100929.03;4949307;28;123903;-63
2021/09/15 06:19:09;;;;;;;16.33;10.70;;;;;;;22.41;63.92;100930.72;4940481;28;123107;-63
2021/09/15 06:21:37;;;;;;;17.90;12.20;;;;;;;22.42;64.14;100927.06;4951509;28;115696;-63
2021/09/15 06:24:27;;;;;;;18.88;12.43;;;;;;;22.41;63.93;100925.34;4941653;28;115543;-64
2021/09/15 06:26:55;;;;;;;17.08;12.00;;;;;;;22.41;64.04;100922.63;4949210;28;123334;-64
2021/09/15 06:29:22;;;;;;;17.60;12.10;;;;;;;22.39;64.13;100927.31;4948338;28;124127;-65
2021/09/15 06:31:50;;;;;;;18.63;12.15;;;;;;;22.39;64.20;100930.03;4952398;28;113561;-64
2021/09/15 06:34:17;;;;;;;17.70;12.70;;;;;;;22.38;64.32;100925.63;4951060;28;112804;-64
2021/09/15 06:36:45;;;;;;;17.42;11.88;;;;;;;22.39;64.27;100921.94;4951967;28;124023;-64
2021/09/15 06:39:12;;;;;;;16.40;12.18;;;;;;;22.38;64.18;100922.91;4944534;28;123913;-64
2021/09/15 06:41:39;;;;;;;16.05;11.90;;;;;;;22.39;64.45;100921.94;4945190;28;115179;-64
2021/09/15 06:44:10;;;;;;;17.27;12.98;;;;;;;22.38;64.50;100920.22;4951743;28;113137;-64
2021/09/15 06:46:38;;;;;;;17.40;12.15;;;;;;;22.37;64.46;100929.31;4956267;28;123817;-64
2021/09/15 06:49:05;;;;;;;17.10;12.32;;;;;;;22.38;64.39;100928.31;4943257;28;124039;-64
2021/09/15 06:51:32;;;;;;;16.17;12.30;;;;;;;22.39;64.57;100927.31;4967287;28;113401;-64
2021/09/15 06:54:00;;;;;;;17.45;12.07;;;;;;;22.39;64.69;100933.56;4948371;28;114199;-64
2021/09/15 06:56:27;;;;;;;18.05;12.48;;;;;;;22.41;64.54;100925.34;4949314;28;124433;-64
2021/09/15 06:58:55;;;;;;;15.05;11.13;;;;;;;22.44;64.59;100930.47;4948692;28;123006;-64
2021/09/15 07:01:24;;;;;;;18.25;11.93;;;;;;;22.47;64.79;100935.53;4950628;28;114656;-64
2021/09/15 07:03:52;;;;;;;15.93;11.80;;;;;;;22.49;64.67;100930.84;4943764;28;113870;-64
2021/09/15 07:06:19;;;;;;;14.10;11.23;;;;;;;22.51;64.67;100931.59;4950277;28;124204;-64
2021/09/15 07:08:49;;;;;;;14.68;11.13;;;;;;;22.53;64.66;100935.00;4951200;28;124184;-63
2021/09/15 07:11:17;;;;;;;15.63;11.13;;;;;;;22.55;64.63;100944.63;4946539;28;115296;-64
2021/09/15 07:13:44;;;;;;;13.73;10.00;;;;;;;22.57;64.64;100952.59;4942555;28;114239;-64
2021/09/15 07:16:11;;;;;;;13.95;10.35;;;;;;;22.57;64.60;100941.81;4951741;28;124088;-64
2021/09/15 07:18:38;;;;;;;13.63;10.80;;;;;;;22.55;64.65;100938.41;4950516;28;124231;-64
2021/09/15 07:21:07;;;;;;;15.60;11.07;;;;;;;22.56;64.59;100942.78;4950079;28;114594;-64
2021/09/15 07:23:34;;;;;;;14.32;10.55;;;;;;;22.56;64.77;100945.47;4952249;28;114094;-64
2021/09/15 07:26:01;;;;;;;13.15;10.18;;;;;;;22.57;64.68;100946.34;4946989;28;124803;-69
2021/09/15 07:28:28;;;;;;;15.05;11.00;;;;;;;22.57;64.69;100941.81;4944019;28;124724;-69
2021/09/15 07:30:55;;;;;;;14.40;10.95;;;;;;;22.59;64.82;100944.34;4949356;28;114511;-69
2021/09/15 07:33:23;;;;;;;14.27;10.65;;;;;;;22.58;64.68;100938.09;4944999;28;114305;-69
2021/09/15 07:35:50;;;;;;;13.93;10.50;;;;;;;22.58;64.80;100943.47;4948493;28;123864;-68
2021/09/15 07:38:17;;;;;;;13.30;10.20;;;;;;;22.59;64.73;100937.09;4948536;28;124664;-68
2021/09/15 07:40:44;;;;;;;15.40;10.88;;;;;;;22.60;64.80;100941.50;4938353;28;114866;-67
2021/09/15 07:43:11;;;;;;;13.27;10.27;;;;;;;22.62;64.80;100942.22;4954253;28;114276;-68
2021/09/15 07:45:39;;;;;;;14.05;10.82;;;;;;;22.63;64.72;100948.47;4952667;28;124918;-68
2021/09/15 07:48:06;;;;;;;13.65;10.23;;;;;;;22.64;64.92;100942.94;4954679;28;124473;-68
2021/09/15 07:50:33;;;;;;;13.27;9.95;;;;;;;22.65;64.88;100939.22;4954723;28;114516;-68
2021/09/15 07:53:00;;;;;;;11.82;9.95;;;;;;;22.67;64.89;100953.41;4953665;28;113834;-69
2021/09/15 07:55:28;;;;;;;14.90;9.27;;;;;;;22.69;64.96;100953.28;4953134;28;124201;-68
2021/09/15 07:57:55;;;;;;;11.90;9.05;;;;;;;22.70;64.84;100950.44;4954193;28;124178;-68
2021/09/15 08:00:22;;;;;;;12.50;9.07;;;;;;;22.73;64.88;100951.97;4951148;28;115094;-68
2021/09/15 08:02:49;;;;;;;11.85;9.20;;;;;;;22.75;64.86;100950.00;4951981;28;114972;-68
2021/09/15 08:05:16;;;;;;;13.32;10.40;;;;;;;22.79;64.98;100955.94;4953735;28;124869;-68
2021/09/15 08:07:43;;;;;;;14.75;11.10;;;;;;;22.81;65.14;100957.53;4950375;28;124885;-68
2021/09/15 08:10:11;;;;;;;15.05;11.20;;;;;;;22.84;65.33;100954.50;4950501;28;114332;-68
2021/09/15 08:12:38;;;;;;;14.30;11.15;;;;;;;22.88;65.33;100960.47;4953692;28;113305;-68
2021/09/15 08:15:06;;;;;;;16.38;12.75;;;;;;;22.93;65.46;100958.19;4951706;28;124007;-67
2021/09/15 08:17:33;;;;;;;19.95;14.68;;;;;;;22.99;65.74;100954.06;4953118;28;124600;-68
2021/09/15 08:20:01;;;;;;;19.67;14.57;;;;;;;23.03;65.58;100959.03;4951347;28;114793;-68
2021/09/15 08:22:28;;;;;;;22.02;15.63;;;;;;;23.08;65.63;100956.75;4948799;28;113897;-68
2021/09/15 08:24:55;;;;;;;24.40;16.15;;;;;;;23.15;65.63;100956.16;4964531;28;122962;-68
2021/09/15 08:27:22;;;;;;;22.48;16.30;;;;;;;23.20;65.57;100953.84;4949897;28;124737;-68
2021/09/15 08:29:49;;;;;;;23.02;16.40;;;;;;;23.27;65.63;100944.16;4953685;28;113468;-67
2021/09/15 08:32:17;;;;;;;23.15;16.27;;;;;;;23.33;65.76;100939.00;4953203;28;114606;-68
2021/09/15 08:34:44;;;;;;;29.73;17.45;;;;;;;23.40;65.56;100933.84;4952244;28;124099;-68
2021/09/15 08:37:11;;;;;;;23.50;16.77;;;;;;;23.48;65.60;100939.34;4944942;28;123941;-67
2021/09/15 08:39:38;;;;;;;28.08;17.23;;;;;;;23.57;65.69;100934.06;4945213;28;114351;-67
2021/09/15 08:42:06;;;;;;;26.88;16.67;;;;;;;23.65;65.64;100936.84;4954222;28;114763;-67
2021/09/15 08:44:34;;;;;;;25.02;16.80;;;;;;;23.75;65.45;100943.00;4943812;28;123950;-67
2021/09/15 08:47:02;;;;;;;27.65;16.90;;;;;;;23.82;65.18;100938.72;4951470;28;123546;-67
2021/09/15 08:49:30;;;;;;;26.10;17.13;;;;;;;23.90;65.31;100930.72;4951106;28;115323;-67
2021/09/15 08:51:57;;;;;;;26.13;17.35;;;;;;;24.00;65.37;100940.63;4953700;28;114868;-67
2021/09/15 08:54:25;;;;;;;26.13;16.73;;;;;;;24.10;65.03;100941.38;4953455;28;124234;-67
2021/09/15 08:56:52;;;;;;;24.63;16.17;;;;;;;24.20;64.91;100946.72;4953920;28;123772;-67
2021/09/15 08:59:19;;;;;;;25.52;15.88;;;;;;;24.26;64.78;100946.94;4948442;28;114200;-67
2021/09/15 09:01:46;;;;;;;26.75;16.88;;;;;;;24.33;64.87;100946.31;4944899;28;114462;-67
2021/09/15 09:04:15;;;;;;;22.02;14.50;;;;;;;24.38;64.21;100949.41;4942611;28;123919;-67
2021/09/15 09:06:47;;;;;;;21.23;13.75;;;;;;;24.43;64.33;100950.63;4936695;28;123747;-68
2021/09/15 09:09:15;;;;;;;19.33;13.65;;;;;;;24.48;64.32;100958.28;4937636;28;113786;-67
2021/09/15 09:11:44;;;;;;;18.55;13.43;;;;;;;24.54;64.14;100944.13;4952189;28;114037;-68
2021/09/15 09:14:12;;;;;;;18.30;13.38;;;;;;;24.59;63.71;100947.22;4954208;28;125028;-68
2021/09/15 09:16:45;;;;;;;18.95;12.73;;;;;;;24.60;63.31;100943.53;4953086;28;123608;-67
2021/09/15 09:19:19;;;;;;;18.42;12.85;;;;;;;24.61;63.37;100945.19;4945701;28;113369;-68
2021/09/15 09:21:49;;;;;;;19.38;13.40;;;;;;;24.64;63.84;100944.91;4948225;28;113028;-68
2021/09/15 09:24:22;;;;;;;15.63;11.25;;;;;;;24.68;63.62;100943.56;4936054;28;123902;-67
2021/09/15 09:27:02;;;;;;;19.38;12.35;;;;;;;24.72;63.30;100945.97;4972412;28;125218;-67
2021/09/15 09:29:36;;;;;;;17.98;12.88;;;;;;;24.77;63.20;100949.03;4961103;28;113413;-68
2021/09/15 09:32:07;;;;;;;21.88;13.32;;;;;;;24.81;63.15;100947.72;4951064;28;113999;-68
2021/09/15 09:34:46;;;;;;;17.77;12.93;;;;;;;24.85;63.29;100963.50;4935460;28;124702;-68
2021/09/15 09:37:19;;;;;;;19.13;14.32;;;;;;;24.88;62.90;100956.88;4953057;28;123787;-67
2021/09/15 09:39:55;;;;;;;19.73;14.05;;;;;;;24.92;63.12;100958.28;4952669;28;114513;-68
2021/09/15 09:42:22;;;;;;;22.67;14.77;;;;;;;24.96;63.30;100959.66;4952999;28;114975;-67
2021/09/15 09:44:54;;;;;;;22.70;16.23;;;;;;;25.01;63.26;100956.47;4946794;28;123858;-67
2021/09/15 09:47:24;;;;;;;22.52;16.05;;;;;;;25.08;63.20;100948.56;4949855;28;125288;-67
2021/09/15 09:50:05;;;;;;;23.35;16.70;;;;;;;25.14;63.27;100946.03;4950882;28;114218;-67
2021/09/15 09:52:56;;;;;;;26.58;17.83;;;;;;;25.29;63.44;100949.00;4953455;28;113384;-67
2021/09/15 09:55:29;;;;;;;26.90;18.17;;;;;;;25.46;63.54;100944.50;4952132;28;124192;-67
2021/09/15 09:57:57;;;;;;;26.13;18.65;;;;;;;25.60;63.04;100946.59;4954499;28;124648;-67
2021/09/15 10:00:24;;;;;;;27.60;19.42;;;;;;;25.73;62.80;100951.56;4944773;28;114149;-67
2021/09/15 10:02:53;;;;;;;23.40;16.27;;;;;;;25.82;62.42;100950.56;4949949;28;113944;-67
2021/09/15 10:05:22;;;;;;;23.30;15.63;;;;;;;25.89;61.65;100952.59;4948618;28;125215;-67
2021/09/15 10:07:50;;;;;;;24.40;15.90;;;;;;;25.90;61.64;100957.00;4944011;28;122636;-67
2021/09/15 10:10:19;;;;;;;22.15;15.73;;;;;;;25.90;61.30;100951.56;4949710;28;114942;-67
2021/09/15 10:12:50;;;;;;;18.88;14.07;;;;;;;25.88;60.86;100965.31;4951326;28;115273;-67
2021/09/15 10:15:17;;;;;;;20.15;14.73;;;;;;;25.87;60.95;100969.03;4949466;28;123972;-67
2021/09/15 10:17:49;;;;;;;19.90;14.18;;;;;;;25.81;60.32;100970.56;4951720;28;124096;-67
2021/09/15 10:20:22;;;;;;;20.02;14.00;;;;;;;25.75;60.55;100965.78;4951938;28;114447;-67
2021/09/15 10:22:49;;;;;;;21.08;15.18;;;;;;;25.74;60.80;100974.94;4939029;28;114069;-67
2021/09/15 10:25:17;;;;;;;25.02;15.65;;;;;;;25.69;60.44;100977.28;4945548;28;124530;-70
2021/09/15 10:28:00;;;;;;;23.42;16.08;;;;;;;25.63;60.61;100977.94;4946036;28;123766;-68
2021/09/15 10:30:39;;;;;;;25.17;17.08;;;;;;;25.60;60.84;100989.16;4949556;28;114427;-65
2021/09/15 10:33:06;;;;;;;30.42;18.52;;;;;;;25.57;60.74;100984.88;4983109;22;115255;-73
2021/09/15 10:35:47;;;;;;;34.25;20.98;;;;;;;25.54;61.07;100979.81;4952468;28;122814;-73
2021/09/15 10:38:14;;;;;;;34.72;21.45;;;;;;;25.53;61.02;100985.38;4945551;28;122724;-73
2021/09/15 10:40:43;;;;;;;36.25;21.90;;;;;;;25.51;61.04;100990.13;4956067;28;114598;-73
2021/09/15 10:43:40;;;;;;;38.95;23.02;;;;;;;25.45;60.74;100981.63;4943578;28;114225;-74
2021/09/15 10:46:25;;;;;;;38.08;23.73;;;;;;;25.40;60.98;100983.97;4928779;28;126075;-73
2021/09/15 10:49:37;;;;;;;41.45;25.25;;;;;;;25.35;60.62;100991.72;4938553;28;123556;-73
2021/09/15 10:52:10;;;;;;;44.65;26.27;;;;;;;25.24;60.58;100992.00;4932017;28;114123;-73
2021/09/15 10:54:43;;;;;;;42.05;24.25;;;;;;;25.15;60.33;100995.69;4932032;28;113931;-73
2021/09/15 10:57:28;;;;;;;42.67;25.75;;;;;;;25.09;60.94;100990.88;4925908;28;123442;-73
2021/09/15 11:00:27;;;;;;;37.08;23.92;;;;;;;25.02;60.87;100991.53;4923041;28;124069;-73
2021/09/15 11:02:56;;;;;;;37.75;22.38;;;;;;;24.98;60.71;100992.88;4931382;28;113999;-73
2021/09/15 11:05:26;;;;;;;38.90;23.73;;;;;;;24.96;60.72;100996.72;4932743;28;113759;-73
2021/09/15 11:07:54;;;;;;;37.03;21.63;;;;;;;24.92;60.89;100996.22;4931023;28;125012;-73
2021/09/15 11:10:33;;;;;;;34.85;21.10;;;;;;;24.89;60.64;100996.53;4943934;28;123880;-72
2021/09/15 11:13:10;;;;;;;31.65;20.55;;;;;;;24.85;60.63;101001.41;4929106;28;114238;-73
2021/09/15 11:15:38;;;;;;;34.00;20.67;;;;;;;24.84;60.99;100998.84;4929335;28;114062;-72
2021/09/15 11:18:05;;;;;;;33.05;20.65;;;;;;;24.85;60.69;101000.56;4928068;28;125098;-73
2021/09/15 11:20:35;;;;;;;32.55;19.33;;;;;;;24.90;60.89;101002.78;4929478;28;123741;-72
2021/09/15 11:23:08;;;;;;;28.35;19.50;;;;;;;24.94;61.03;101005.03;4930744;28;114989;-73
2021/09/15 11:25:35;;;;;;;29.30;19.08;;;;;;;25.00;60.65;101003.56;4935629;28;115053;-72
2021/09/15 11:28:12;;;;;;;29.40;19.60;;;;;;;25.05;60.40;101007.50;4930891;28;124002;-73
2021/09/15 11:30:56;;;;;;;26.98;18.27;;;;;;;25.05;60.21;101002.06;4927022;28;124557;-73